Time;durP1;ratioP1;P1;durP2;ratioP2;P2;SDS_P1;SDS_P2;PMS_P1;PMS_P2;Temp;Humidity;BMP_temperature;BMP_pressure;BME280_temperature;BME280_humidity;BME280_pressure;Samples;Min_cycle;Max_cycle;Signal;HPM_P1;HPM_P2
2021/06/19 00:00:20;;;;;;;5.17;1.80;;;;;;;19.08;67.03;100969.49;1731223;81;21051;-77
2021/06/19 00:02:47;;;;;;;4.43;1.87;;;;;;;19.07;67.23;100960.58;1734073;80;21149;-76
2021/06/19 00:05:14;;;;;;;6.93;2.27;;;;;;;19.05;67.44;100965.51;1734738;80;21094;-77
2021/06/19 00:07:40;;;;;;;6.87;2.10;;;;;;;19.02;67.54;100955.81;1747380;80;21087;-75
2021/06/19 00:10:09;;;;;;;5.20;1.80;;;;;;;18.97;67.79;100958.88;1734764;81;22120;-75
2021/06/19 00:12:37;;;;;;;4.27;1.90;;;;;;;18.94;67.98;100954.63;1743837;80;21102;-75
2021/06/19 00:15:08;;;;;;;4.80;1.97;;;;;;;18.90;68.37;100951.73;1739689;80;21083;-74
2021/06/19 00:17:35;;;;;;;3.83;1.80;;;;;;;18.86;68.37;100949.39;1738323;80;21020;-75
2021/06/19 00:20:06;;;;;;;3.73;2.07;;;;;;;18.84;68.45;100952.94;1739305;80;21479;-76
2021/06/19 00:22:33;;;;;;;5.00;2.02;;;;;;;18.84;68.36;100951.59;1739447;81;21254;-74
2021/06/19 00:24:59;;;;;;;6.63;2.30;;;;;;;18.83;68.44;100947.84;1743294;80;21601;-74
2021/06/19 00:27:26;;;;;;;5.50;1.70;;;;;;;18.82;68.43;100951.11;1738565;80;21035;-75
2021/06/19 00:29:52;;;;;;;4.37;1.80;;;;;;;18.81;68.53;100945.98;1726871;81;21047;-75
2021/06/19 00:32:19;;;;;;;5.63;1.97;;;;;;;18.79;68.55;100944.12;1731980;81;21059;-75
2021/06/19 00:34:47;;;;;;;4.73;1.90;;;;;;;18.80;68.77;100941.68;1730577;81;21093;-75
2021/06/19 00:37:13;;;;;;;4.80;1.93;;;;;;;18.76;68.73;100946.10;1738462;80;21081;-74
2021/06/19 00:39:40;;;;;;;4.77;1.53;;;;;;;18.74;68.88;100942.33;1745877;80;21072;-74
2021/06/19 00:42:08;;;;;;;6.30;1.77;;;;;;;18.74;68.89;100939.63;1724231;81;21039;-73
2021/06/19 00:44:34;;;;;;;3.53;1.50;;;;;;;18.72;68.87;100935.88;1739314;80;21155;-74
2021/06/19 00:47:01;;;;;;;3.40;1.40;;;;;;;18.72;68.83;100931.00;1740003;80;21129;-73
2021/06/19 00:49:28;;;;;;;6.73;1.80;;;;;;;18.71;68.66;100936.13;1756945;80;21054;-74
2021/06/19 00:51:55;;;;;;;4.67;1.73;;;;;;;18.71;68.77;100934.78;1772229;80;21074;-73
2021/06/19 00:54:22;;;;;;;6.50;2.00;;;;;;;18.71;68.71;100933.43;1758099;80;21602;-74
2021/06/19 00:56:50;;;;;;;3.87;1.70;;;;;;;18.71;68.71;100935.58;1758333;80;20960;-73
2021/06/19 00:59:17;;;;;;;4.33;1.80;;;;;;;18.71;68.96;100934.22;1760047;80;21110;-73
2021/06/19 01:01:43;;;;;;;4.30;1.80;;;;;;;18.69;68.97;100931.04;1747689;80;21235;-73
2021/06/19 01:04:10;;;;;;;7.10;1.90;;;;;;;18.68;69.08;100933.47;1763049;80;21558;-72
2021/06/19 01:06:37;;;;;;;4.93;1.70;;;;;;;18.67;69.08;100929.17;1763624;80;21090;-75
2021/06/19 01:09:08;;;;;;;4.57;2.00;;;;;;;18.67;69.01;100927.82;1757704;80;21042;-73
2021/06/19 01:11:37;;;;;;;2.47;1.30;;;;;;;18.68;68.72;100928.06;1762118;80;21062;-74
2021/06/19 01:14:04;;;;;;;7.03;1.70;;;;;;;18.71;68.81;100923.96;1757608;80;21963;-75
2021/06/19 01:16:32;;;;;;;3.90;1.73;;;;;;;18.69;68.76;100926.16;1754597;80;21140;-74
2021/06/19 01:18:59;;;;;;;5.77;2.00;;;;;;;18.67;68.71;100930.53;1755927;80;21077;-74
2021/06/19 01:21:29;;;;;;;3.63;1.63;;;;;;;18.67;68.66;100922.97;1756697;80;21033;-74
2021/06/19 01:23:56;;;;;;;3.30;1.70;;;;;;;18.66;68.84;100927.58;1757056;80;21152;-74
2021/06/19 01:26:25;;;;;;;5.07;1.77;;;;;;;18.64;68.89;100928.42;1749378;80;21037;-75
2021/06/19 01:28:53;;;;;;;4.87;1.70;;;;;;;18.65;68.94;100931.37;1755614;80;21074;-73
2021/06/19 01:31:20;;;;;;;5.57;2.10;;;;;;;18.65;69.25;100937.34;1756939;80;21038;-72
2021/06/19 01:33:48;;;;;;;5.03;1.80;;;;;;;18.65;69.38;100932.72;1755431;80;21113;-71
2021/06/19 01:36:16;;;;;;;2.57;1.47;;;;;;;18.65;69.64;100935.98;1756355;80;21089;-70
2021/06/19 01:38:47;;;;;;;4.97;1.77;;;;;;;18.64;69.62;100937.09;1763519;80;21101;-71
2021/06/19 01:41:17;;;;;;;3.22;1.80;;;;;;;18.63;69.79;100935.50;1760629;80;21521;-71
2021/06/19 01:43:46;;;;;;;4.75;2.00;;;;;;;18.61;69.76;100934.99;1758889;79;21022;-72
2021/06/19 01:46:14;;;;;;;6.40;1.80;;;;;;;18.61;69.79;100940.41;1747329;81;21073;-71
2021/06/19 01:48:40;;;;;;;4.90;1.90;;;;;;;18.59;70.03;100939.89;1761147;80;21935;-71
2021/06/19 01:51:10;;;;;;;4.20;1.70;;;;;;;18.59;69.95;100941.24;1763871;80;21359;-70
2021/06/19 01:53:42;;;;;;;6.80;2.20;;;;;;;18.63;69.87;100939.56;1765879;80;21050;-71
2021/06/19 01:56:11;;;;;;;4.53;1.73;;;;;;;18.69;69.83;100942.39;1749783;80;21537;-72
2021/06/19 01:58:38;;;;;;;3.83;1.90;;;;;;;18.76;69.75;100942.84;1754699;80;21030;-71
2021/06/19 02:01:07;;;;;;;5.10;1.70;;;;;;;18.81;69.68;100941.36;1756083;80;21098;-71
2021/06/19 02:03:35;;;;;;;4.33;1.80;;;;;;;18.88;69.64;100943.66;1765461;80;21042;-71
2021/06/19 02:06:05;;;;;;;3.90;1.97;;;;;;;18.91;69.56;100939.79;1760041;80;20999;-70
2021/06/19 02:08:34;;;;;;;5.07;1.93;;;;;;;18.95;69.44;100940.81;1767885;80;21053;-71
2021/06/19 02:11:00;;;;;;;5.10;1.90;;;;;;;19.01;69.26;100940.69;1774265;80;20959;-71
2021/06/19 02:13:27;;;;;;;6.87;2.00;;;;;;;19.01;69.31;100934.71;1761527;80;21590;-71
2021/06/19 02:15:54;;;;;;;3.17;1.80;;;;;;;19.00;69.34;100941.80;1753965;80;21038;-71
2021/06/19 02:18:21;;;;;;;4.47;1.77;;;;;;;18.94;69.58;100940.54;1708011;82;21147;-71
2021/06/19 02:20:52;;;;;;;4.67;1.40;;;;;;;18.93;69.73;100949.77;1722800;82;21059;-71
2021/06/19 02:23:16;;;;;;;2.47;1.67;;;;;;;18.93;69.67;100945.72;1702322;83;21717;-71
2021/06/19 02:25:43;;;;;;;3.53;1.50;;;;;;;18.94;69.75;100940.54;1767040;80;21498;-71
2021/06/19 02:28:10;;;;;;;4.50;1.60;;;;;;;18.94;69.80;100939.19;1766287;80;21031;-71
2021/06/19 02:30:45;;;;;;;3.67;1.70;;;;;;;18.97;69.52;100938.58;1766550;80;21058;-72
2021/06/19 02:33:13;;;;;;;3.83;1.70;;;;;;;18.94;69.66;100935.13;1761672;80;21029;-70
2021/06/19 02:35:42;;;;;;;3.73;1.67;;;;;;;18.92;69.72;100939.23;1757464;80;21073;-71
2021/06/19 02:38:09;;;;;;;6.33;1.80;;;;;;;18.96;69.81;100939.70;1755969;80;21104;-71
2021/06/19 02:40:35;;;;;;;5.07;1.70;;;;;;;18.97;69.83;100942.64;1755694;80;21487;-72
2021/06/19 02:43:02;;;;;;;4.53;1.77;;;;;;;19.02;69.75;100951.22;1774551;80;21069;-71
2021/06/19 02:45:29;;;;;;;3.83;1.70;;;;;;;19.07;69.62;100951.66;1753899;80;21394;-72
2021/06/19 02:47:57;;;;;;;3.70;1.73;;;;;;;19.14;69.15;100956.09;1761882;80;21623;-70
2021/06/19 02:50:27;;;;;;;3.83;1.80;;;;;;;19.20;68.84;100950.81;1767021;80;21893;-71
2021/06/19 02:52:54;;;;;;;2.40;1.53;;;;;;;19.27;68.55;100954.45;1768800;80;21070;-71
2021/06/19 02:55:27;;;;;;;4.23;1.57;;;;;;;19.34;68.42;100948.06;1764578;80;20979;-71
2021/06/19 02:57:54;;;;;;;3.33;1.60;;;;;;;19.40;68.39;100953.61;1773281;80;21026;-71
2021/06/19 03:00:22;;;;;;;4.37;1.70;;;;;;;19.44;68.07;100951.89;1748895;80;21273;-71
2021/06/19 03:02:49;;;;;;;3.90;1.73;;;;;;;19.48;68.31;100957.48;1756589;80;21907;-71
2021/06/19 03:05:20;;;;;;;3.97;1.63;;;;;;;19.50;67.77;100952.58;1755247;80;21978;-72
2021/06/19 03:07:47;;;;;;;5.20;1.70;;;;;;;19.56;67.67;100954.86;1754799;80;21074;-71
2021/06/19 03:10:17;;;;;;;5.20;1.70;;;;;;;19.60;67.43;100957.75;1760028;80;21609;-71
2021/06/19 03:12:44;;;;;;;3.60;1.50;;;;;;;19.62;67.33;100955.55;1758320;80;21624;-71
2021/06/19 03:15:12;;;;;;;4.63;1.80;;;;;;;19.66;67.39;100959.27;1698893;83;21267;-71
2021/06/19 03:17:40;;;;;;;3.03;1.57;;;;;;;19.70;67.10;100966.22;1718312;82;21172;-70
2021/06/19 03:20:08;;;;;;;5.00;1.53;;;;;;;19.71;66.70;100961.86;1721283;82;21593;-71
2021/06/19 03:22:54;;;;;;;5.17;1.70;;;;;;;19.75;66.66;100958.77;1698194;83;21052;-71
2021/06/19 03:25:25;;;;;;;4.93;1.40;;;;;;;19.79;66.88;100963.81;1748536;80;21029;-71
2021/06/19 03:27:52;;;;;;;2.50;1.45;;;;;;;19.82;66.88;100974.60;1758189;80;21157;-70
2021/06/19 03:30:20;;;;;;;2.63;1.53;;;;;;;19.88;66.69;100969.30;1753170;80;21442;-72
2021/06/19 03:32:47;;;;;;;2.50;1.50;;;;;;;19.91;66.52;100972.20;1771179;80;21062;-71
2021/06/19 03:35:14;;;;;;;2.93;1.30;;;;;;;19.96;66.23;100967.19;1734941;82;20997;-71
2021/06/19 03:37:45;;;;;;;5.07;1.43;;;;;;;19.99;66.39;100961.70;1721486;82;21542;-71
2021/06/19 03:40:12;;;;;;;2.53;1.40;;;;;;;20.04;66.36;100962.91;1700128;82;21126;-72
2021/06/19 03:42:40;;;;;;;4.70;1.33;;;;;;;20.10;66.48;100968.45;1753912;80;21000;-72
2021/06/19 03:45:08;;;;;;;4.67;1.70;;;;;;;20.15;66.05;100964.27;1761350;80;21082;-72
2021/06/19 03:47:35;;;;;;;2.70;1.50;;;;;;;20.21;66.29;100971.16;1766208;80;21109;-71
2021/06/19 03:50:02;;;;;;;5.00;1.80;;;;;;;20.25;65.64;100971.34;1765350;80;21767;-71
2021/06/19 03:52:29;;;;;;;4.20;1.40;;;;;;;20.31;65.58;100970.09;1767674;80;21129;-72
2021/06/19 03:54:56;;;;;;;2.87;1.60;;;;;;;20.38;65.47;100965.02;1750662;80;21019;-71
2021/06/19 03:57:28;;;;;;;2.67;1.47;;;;;;;20.43;65.26;100954.01;1759403;80;21062;-71
2021/06/19 03:59:56;;;;;;;3.43;1.40;;;;;;;20.44;65.24;100967.84;1756765;80;21158;-71
2021/06/19 04:02:23;;;;;;;2.60;1.40;;;;;;;20.45;65.32;100966.72;1761940;80;21093;-71
2021/06/19 04:04:50;;;;;;;2.47;1.50;;;;;;;20.48;65.18;100970.16;1751364;80;21120;-70
2021/06/19 04:07:19;;;;;;;3.07;1.60;;;;;;;20.52;65.09;100969.00;1755320;80;21065;-71
2021/06/19 04:09:47;;;;;;;3.67;1.30;;;;;;;20.57;64.58;100966.96;1755339;80;21090;-71
2021/06/19 04:12:15;;;;;;;2.50;1.40;;;;;;;20.63;64.77;100966.80;1757588;80;21046;-71
2021/06/19 04:14:42;;;;;;;4.07;1.60;;;;;;;20.68;65.06;100968.82;1759609;80;21641;-71
2021/06/19 04:17:09;;;;;;;3.40;1.20;;;;;;;20.75;64.35;100973.79;1761267;80;21117;-70
2021/06/19 04:19:38;;;;;;;4.67;1.67;;;;;;;20.79;64.54;100970.12;1771520;80;21058;-71
2021/06/19 04:22:06;;;;;;;3.53;1.83;;;;;;;20.88;64.33;100972.06;1761298;80;20999;-71
2021/06/19 04:24:34;;;;;;;3.43;1.40;;;;;;;20.96;63.91;100972.09;1759622;80;21022;-71
2021/06/19 04:27:01;;;;;;;4.30;1.63;;;;;;;21.03;63.40;100976.50;1753918;80;21129;-72
2021/06/19 04:29:28;;;;;;;4.27;1.53;;;;;;;21.08;63.18;100979.05;1749076;80;21921;-70
2021/06/19 04:31:55;;;;;;;4.20;1.90;;;;;;;21.17;63.36;100976.91;1756852;80;21015;-71
2021/06/19 04:34:23;;;;;;;3.40;1.57;;;;;;;21.22;62.98;100979.46;1765584;80;21062;-71
2021/06/19 04:36:51;;;;;;;3.90;2.13;;;;;;;21.29;63.22;100983.89;1760212;80;21027;-71
2021/06/19 04:39:18;;;;;;;3.90;1.70;;;;;;;21.34;63.27;100989.71;1766183;80;21081;-72
2021/06/19 04:46:57;;;;;;;5.03;1.70;;;;;;;21.49;62.14;100986.00;1715202;82;21106;-71
2021/06/19 04:49:24;;;;;;;2.90;1.60;;;;;;;21.58;62.70;100983.25;1765026;80;21499;-72
2021/06/19 04:51:51;;;;;;;3.87;1.63;;;;;;;21.64;62.05;100976.54;1760571;80;21031;-71
2021/06/19 04:54:18;;;;;;;4.27;1.50;;;;;;;21.72;61.53;100972.23;1704850;83;21144;-71
2021/06/19 04:56:44;;;;;;;3.93;1.50;;;;;;;21.84;61.53;100970.99;1711991;83;21044;-72
2021/06/19 04:59:11;;;;;;;2.70;1.30;;;;;;;21.96;61.19;100973.06;1748863;80;21086;-71
2021/06/19 05:01:39;;;;;;;5.07;1.70;;;;;;;22.05;60.46;100968.41;1761130;80;21601;-71
2021/06/19 05:04:06;;;;;;;4.33;1.40;;;;;;;22.14;61.10;100975.95;1760125;80;21032;-70
2021/06/19 05:06:35;;;;;;;3.30;1.50;;;;;;;22.25;61.10;100975.09;1765352;80;21602;-71
2021/06/19 05:09:04;;;;;;;5.30;2.03;;;;;;;22.35;60.52;100972.58;1755577;80;22287;-71
2021/06/19 05:11:31;;;;;;;2.73;1.50;;;;;;;22.43;60.30;100977.17;1758488;80;21015;-70
2021/06/19 05:13:58;;;;;;;5.63;1.80;;;;;;;22.50;60.81;100969.86;1762124;80;21074;-71
2021/06/19 05:16:24;;;;;;;2.63;1.50;;;;;;;22.52;60.23;100979.87;1761164;80;21462;-71
2021/06/19 05:18:52;;;;;;;4.33;1.70;;;;;;;22.50;60.12;100976.67;1751029;80;21523;-72
2021/06/19 05:21:19;;;;;;;3.73;1.50;;;;;;;22.44;60.19;100985.57;1753892;80;21515;-72
2021/06/19 05:23:46;;;;;;;3.03;1.40;;;;;;;22.46;60.66;100984.12;1766805;80;21018;-71
2021/06/19 05:26:13;;;;;;;3.80;1.60;;;;;;;22.57;59.84;100977.74;1754137;80;21455;-71
2021/06/19 05:28:40;;;;;;;3.87;1.67;;;;;;;22.65;59.79;100981.57;1760266;80;21006;-71
2021/06/19 05:31:08;;;;;;;4.57;1.80;;;;;;;22.76;59.72;100986.07;1759272;80;21608;-72
2021/06/19 05:33:35;;;;;;;6.03;2.03;;;;;;;22.88;59.30;100978.80;1737444;80;21086;-71
2021/06/19 05:36:03;;;;;;;4.03;1.70;;;;;;;23.08;59.86;100983.27;1764942;80;21600;-71
2021/06/19 05:38:31;;;;;;;4.27;1.70;;;;;;;23.24;58.21;100976.67;1755991;80;21269;-71
2021/06/19 05:40:57;;;;;;;4.47;1.80;;;;;;;23.32;58.20;100979.87;1759368;80;21082;-71
2021/06/19 05:43:26;;;;;;;4.20;2.20;;;;;;;23.40;58.27;100975.73;1762800;80;21095;-71
2021/06/19 05:45:52;;;;;;;4.10;1.90;;;;;;;23.56;57.51;100981.92;1760796;80;21058;-71
2021/06/19 05:48:19;;;;;;;4.53;2.30;;;;;;;23.62;57.29;100986.83;1753939;80;21035;-71
2021/06/19 05:50:46;;;;;;;5.13;2.00;;;;;;;23.68;57.31;100997.00;1757442;80;21070;-72
2021/06/19 05:53:13;;;;;;;4.83;1.93;;;;;;;23.71;57.22;100999.64;1757297;80;22234;-72
2021/06/19 05:55:39;;;;;;;5.20;1.93;;;;;;;23.69;56.93;101001.34;1769370;80;21098;-71
2021/06/19 05:58:08;;;;;;;4.33;1.73;;;;;;;23.73;56.85;101002.84;1774299;80;21531;-72
2021/06/19 06:00:37;;;;;;;5.17;1.60;;;;;;;23.83;57.44;101005.14;1767441;80;21018;-72
2021/06/19 06:03:05;;;;;;;3.00;1.60;;;;;;;23.92;55.86;100998.22;1709425;82;21098;-72
2021/06/19 06:05:32;;;;;;;2.23;1.50;;;;;;;23.92;56.09;101000.38;1692777;83;21079;-72
2021/06/19 06:08:00;;;;;;;3.33;1.60;;;;;;;23.90;56.81;101003.23;1713387;83;21170;-72
2021/06/19 06:10:29;;;;;;;5.73;1.70;;;;;;;23.90;57.06;101002.66;1703703;83;21155;-72
2021/06/19 06:12:57;;;;;;;4.70;1.80;;;;;;;23.94;56.90;100998.69;1706035;83;21054;-72
2021/06/19 06:15:26;;;;;;;4.40;1.57;;;;;;;24.01;56.47;100998.36;1751830;80;21075;-71
2021/06/19 06:17:53;;;;;;;4.23;1.53;;;;;;;24.13;56.78;100994.09;1765172;80;21596;-71
2021/06/19 06:20:19;;;;;;;3.30;1.77;;;;;;;24.29;57.02;100990.36;1757438;80;21225;-72
2021/06/19 06:22:46;;;;;;;2.90;1.50;;;;;;;24.45;56.19;100990.53;1748583;80;21026;-72
2021/06/19 06:25:14;;;;;;;2.43;1.60;;;;;;;24.54;56.48;100992.55;1762476;80;21093;-72
2021/06/19 06:27:40;;;;;;;4.73;1.60;;;;;;;24.68;55.97;100988.14;1765033;80;21604;-71
2021/06/19 06:30:09;;;;;;;4.00;1.80;;;;;;;24.82;55.94;100993.25;1758664;80;21046;-71
2021/06/19 06:32:36;;;;;;;2.97;1.60;;;;;;;24.89;55.09;100994.05;1760268;80;21211;-72
2021/06/19 06:35:07;;;;;;;4.13;1.57;;;;;;;24.93;54.90;100993.00;1763318;80;21011;-71
2021/06/19 06:37:37;;;;;;;5.80;1.97;;;;;;;24.97;54.99;101002.09;1755699;80;21084;-72
2021/06/19 06:40:06;;;;;;;4.70;1.70;;;;;;;25.03;54.82;100993.89;1760990;80;21066;-72
2021/06/19 06:42:33;;;;;;;5.07;1.77;;;;;;;25.10;53.98;100991.16;1751656;80;21054;-71
2021/06/19 06:44:59;;;;;;;2.73;1.70;;;;;;;25.17;54.30;100992.76;1753804;80;21139;-71
2021/06/19 06:47:26;;;;;;;5.53;1.80;;;;;;;25.23;54.33;100990.02;1753030;80;21042;-72
2021/06/19 06:49:52;;;;;;;6.13;1.70;;;;;;;25.21;53.61;100993.68;1749108;80;21066;-72
2021/06/19 06:52:19;;;;;;;4.20;1.57;;;;;;;25.23;54.57;100986.70;1760200;80;21062;-72
2021/06/19 06:54:46;;;;;;;4.43;1.60;;;;;;;25.33;54.58;100985.42;1698059;82;21575;-72
2021/06/19 06:57:13;;;;;;;7.50;1.60;;;;;;;25.44;53.69;100987.91;1695304;83;21119;-70
2021/06/19 06:59:41;;;;;;;3.10;1.70;;;;;;;25.52;53.45;100992.21;1710447;82;21775;-71
2021/06/19 07:02:07;;;;;;;1.97;1.30;;;;;;;25.56;53.10;100994.47;1732839;82;21035;-70
2021/06/19 07:04:34;;;;;;;3.00;1.60;;;;;;;25.58;52.97;100992.19;1720459;82;21142;-72
2021/06/19 07:07:03;;;;;;;2.60;1.60;;;;;;;25.63;52.73;100986.45;1696875;83;21096;-71
2021/06/19 07:09:31;;;;;;;3.47;1.80;;;;;;;25.67;53.24;100983.27;1767107;80;21164;-73
2021/06/19 07:11:57;;;;;;;4.20;1.70;;;;;;;25.73;52.62;100985.95;1760491;80;21074;-71
2021/06/19 07:14:25;;;;;;;3.43;1.50;;;;;;;25.84;51.89;100982.19;1752799;80;21089;-72
2021/06/19 07:16:53;;;;;;;6.67;1.90;;;;;;;25.87;50.97;100989.13;1758175;80;21541;-70
2021/06/19 07:19:20;;;;;;;3.77;1.80;;;;;;;25.89;51.58;100994.23;1762651;80;21134;-71
2021/06/19 07:21:48;;;;;;;4.37;1.80;;;;;;;25.92;51.59;100987.48;1761039;80;21964;-72
2021/06/19 07:24:14;;;;;;;5.60;1.93;;;;;;;25.93;51.24;100984.20;1763274;80;21023;-72
2021/06/19 07:26:41;;;;;;;5.17;2.00;;;;;;;25.95;52.13;100981.31;1759776;80;21010;-72
2021/06/19 07:29:08;;;;;;;4.13;2.20;;;;;;;25.99;51.56;100982.77;1756562;80;21529;-72
2021/06/19 07:31:34;;;;;;;5.80;2.10;;;;;;;25.99;51.59;100980.03;1761878;80;21038;-72
2021/06/19 07:34:01;;;;;;;4.63;2.00;;;;;;;26.03;51.18;100985.05;1756651;80;21101;-71
2021/06/19 07:36:27;;;;;;;3.73;2.10;;;;;;;26.04;51.78;100983.10;1706709;83;21145;-72
2021/06/19 07:38:55;;;;;;;7.47;2.07;;;;;;;26.04;52.41;100988.58;1701476;83;21567;-71
2021/06/19 07:41:21;;;;;;;6.43;2.00;;;;;;;26.10;51.24;100985.23;1769928;80;21058;-72
2021/06/19 07:43:49;;;;;;;4.33;1.87;;;;;;;26.11;51.29;100990.91;1758594;80;21300;-72
2021/06/19 07:46:16;;;;;;;5.63;2.13;;;;;;;26.18;51.71;100988.93;1756738;80;21131;-72
2021/06/19 07:48:43;;;;;;;6.30;2.00;;;;;;;26.23;51.91;100986.52;1756270;80;21002;-71
2021/06/19 07:51:10;;;;;;;4.83;2.20;;;;;;;26.28;51.80;100980.19;1758225;80;21094;-72
2021/06/19 07:53:37;;;;;;;5.37;2.00;;;;;;;26.36;51.26;100982.55;1760728;80;21110;-72
2021/06/19 07:56:04;;;;;;;5.13;2.00;;;;;;;26.38;51.43;100972.80;1760336;80;21668;-71
2021/06/19 07:58:32;;;;;;;3.27;1.90;;;;;;;26.43;50.69;100981.34;1765031;80;21184;-72
2021/06/19 08:00:58;;;;;;;5.23;1.70;;;;;;;26.43;51.06;100979.41;1762659;80;21518;-71
2021/06/19 08:03:25;;;;;;;6.77;2.13;;;;;;;26.39;50.46;100975.78;1760686;80;21038;-72
2021/06/19 08:05:53;;;;;;;4.13;2.40;;;;;;;26.42;50.52;100966.05;1760705;80;21576;-71
2021/06/19 08:08:19;;;;;;;6.17;2.20;;;;;;;26.50;51.30;100968.42;1754520;80;21011;-71
2021/06/19 08:10:48;;;;;;;6.80;2.50;;;;;;;26.60;49.48;100961.03;1756806;80;21128;-72
2021/06/19 08:13:14;;;;;;;3.20;2.30;;;;;;;26.59;50.92;100964.93;1706181;82;21063;-71
2021/06/19 08:15:41;;;;;;;7.53;2.43;;;;;;;26.66;50.95;100966.47;1763836;80;21063;-71
2021/06/19 08:18:08;;;;;;;5.37;2.90;;;;;;;26.76;51.12;100971.97;1752256;80;21042;-71
2021/06/19 08:20:35;;;;;;;5.77;2.50;;;;;;;26.87;49.86;100966.93;1761810;80;21065;-72
2021/06/19 08:23:04;;;;;;;7.03;2.90;;;;;;;26.95;49.60;100957.48;1753992;80;21092;-72
2021/06/19 08:25:31;;;;;;;5.40;3.07;;;;;;;27.03;49.89;100955.92;1758825;80;21316;-71
2021/06/19 08:27:57;;;;;;;6.00;2.53;;;;;;;27.12;50.11;100952.41;1762320;80;21042;-70
2021/06/19 08:30:25;;;;;;;4.70;2.47;;;;;;;27.23;49.13;100951.28;1770079;80;21059;-71
2021/06/19 08:32:52;;;;;;;6.73;2.93;;;;;;;27.28;49.85;100953.74;1764207;80;21065;-72
2021/06/19 08:35:18;;;;;;;4.13;2.60;;;;;;;27.32;49.17;100948.33;1762593;80;21508;-72
2021/06/19 08:37:45;;;;;;;5.57;3.10;;;;;;;27.38;50.12;100946.89;1759926;80;21070;-72
2021/06/19 08:40:12;;;;;;;4.10;2.63;;;;;;;27.46;49.95;100946.44;1763385;80;21603;-72
2021/06/19 08:42:39;;;;;;;4.83;3.07;;;;;;;27.47;48.42;100946.06;1763499;80;21338;-71
2021/06/19 08:45:07;;;;;;;6.27;2.77;;;;;;;27.49;49.08;100941.02;1758515;80;21018;-72
2021/06/19 08:47:38;;;;;;;10.33;3.17;;;;;;;27.58;49.84;100939.43;1701781;82;21819;-72
2021/06/19 08:50:11;;;;;;;6.00;3.23;;;;;;;27.63;48.48;100936.95;1696840;83;21092;-73
2021/06/19 08:52:43;;;;;;;5.03;3.00;;;;;;;27.63;48.80;100932.26;1759242;80;21061;-71
2021/06/19 08:55:14;;;;;;;6.57;3.23;;;;;;;27.72;48.81;100944.38;1704275;82;21146;-72
2021/06/19 08:57:41;;;;;;;8.30;2.95;;;;;;;27.70;47.95;100944.73;1694720;83;21574;-72
2021/06/19 09:00:10;;;;;;;5.47;2.97;;;;;;;27.67;48.42;100938.59;1758678;79;21137;-72
2021/06/19 09:02:38;;;;;;;5.47;2.70;;;;;;;27.69;47.51;100936.88;1763089;80;21019;-71
2021/06/19 09:05:10;;;;;;;4.93;2.70;;;;;;;27.70;47.80;100936.50;1757670;80;20987;-72
2021/06/19 09:07:46;;;;;;;3.67;2.80;;;;;;;27.75;47.96;100940.33;1766205;80;21109;-71
2021/06/19 09:10:34;;;;;;;5.77;2.60;;;;;;;27.75;46.92;100943.08;1754897;80;21496;-71
2021/06/19 09:13:12;;;;;;;4.97;2.80;;;;;;;27.79;47.99;100941.80;1760321;80;21143;-71
2021/06/19 09:15:49;;;;;;;7.17;2.73;;;;;;;27.88;47.81;100934.70;1763225;80;21006;-71
2021/06/19 09:18:25;;;;;;;5.27;2.90;;;;;;;27.98;47.51;100938.21;1755649;80;21049;-70
2021/06/19 09:21:04;;;;;;;4.30;2.50;;;;;;;28.13;47.27;100935.11;1761803;80;21053;-72
2021/06/19 09:23:37;;;;;;;5.43;2.73;;;;;;;28.27;47.90;100931.23;1755903;80;21237;-71
2021/06/19 09:26:21;;;;;;;3.60;2.53;;;;;;;28.40;46.69;100926.37;1762939;80;21519;-71
2021/06/19 09:29:14;;;;;;;5.43;2.60;;;;;;;28.38;47.03;100928.06;1759525;80;21074;-79
2021/06/19 09:31:50;;;;;;;7.67;2.67;;;;;;;28.45;47.34;100924.66;1758730;80;21382;-72
2021/06/19 09:34:23;;;;;;;4.60;2.63;;;;;;;28.62;47.87;100927.45;1757897;80;21212;-72
2021/06/19 09:37:03;;;;;;;4.03;2.47;;;;;;;28.79;47.19;100925.53;1761075;80;21028;-73
2021/06/19 09:39:29;;;;;;;3.17;2.43;;;;;;;28.90;46.58;100917.45;1765422;80;21020;-72
2021/06/19 09:42:01;;;;;;;4.23;2.20;;;;;;;28.92;45.69;100919.22;1764295;80;21618;-72
2021/06/19 09:44:34;;;;;;;;;;;;;;;28.92;45.18;100911.79;1770695;80;21062;-71
2021/06/19 09:47:01;;;;;;;3.03;2.27;;;;;;;28.91;45.66;100908.02;1771077;80;20226;-71
2021/06/19 09:49:33;;;;;;;5.33;2.43;;;;;;;28.86;45.06;100913.83;1763434;80;21556;-72
2021/06/19 09:52:00;;;;;;;7.83;2.50;;;;;;;28.85;45.45;100906.17;1766348;80;21518;-72
2021/06/19 09:54:27;;;;;;;10.20;2.40;;;;;;;28.83;44.30;100908.52;1770385;80;20996;-70
2021/06/19 09:56:59;;;;;;;4.63;2.17;;;;;;;28.87;45.46;100904.44;1762815;80;21031;-71
2021/06/19 09:59:34;;;;;;;5.30;2.23;;;;;;;28.98;45.24;100895.14;1762575;80;21327;-73
2021/06/19 10:02:03;;;;;;;6.93;2.33;;;;;;;29.12;45.15;100895.95;1766395;80;20987;-72
2021/06/19 10:04:31;;;;;;;3.87;2.07;;;;;;;29.21;45.00;100897.80;1754149;80;22095;-73
2021/06/19 10:06:59;;;;;;;4.90;2.07;;;;;;;29.31;44.08;100892.80;1756876;80;21026;-73
2021/06/19 10:09:26;;;;;;;4.63;2.30;;;;;;;29.26;44.57;100893.16;1761948;80;21097;-71
2021/06/19 10:11:54;;;;;;;3.40;2.07;;;;;;;29.25;43.94;100895.09;1758707;80;21053;-71
2021/06/19 10:14:24;;;;;;;6.40;2.40;;;;;;;29.20;44.24;100892.10;1768967;79;21078;-73
2021/06/19 10:16:53;;;;;;;6.50;2.40;;;;;;;29.14;44.19;100889.47;1777340;80;21188;-71
2021/06/19 10:19:25;;;;;;;8.20;2.13;;;;;;;29.18;44.71;100888.14;1762279;80;21019;-71
2021/06/19 10:21:54;;;;;;;4.83;2.00;;;;;;;29.32;45.61;100887.49;1768666;80;21521;-71
2021/06/19 10:24:22;;;;;;;3.17;2.10;;;;;;;29.40;43.41;100885.05;1764950;80;20998;-72
2021/06/19 10:26:50;;;;;;;3.70;1.87;;;;;;;29.39;43.83;100884.25;1766582;80;21565;-71
2021/06/19 10:29:17;;;;;;;4.37;2.10;;;;;;;29.40;44.49;100889.95;1742526;80;21564;-71
2021/06/19 10:31:51;;;;;;;5.10;2.20;;;;;;;29.36;42.69;100885.59;1764906;80;21054;-72
2021/06/19 10:34:31;;;;;;;4.77;2.30;;;;;;;29.25;43.33;100886.05;1758629;80;21086;-71
2021/06/19 10:37:03;;;;;;;4.97;1.90;;;;;;;29.23;44.05;100891.16;1750559;80;21026;-71
2021/06/19 10:39:42;;;;;;;3.90;1.83;;;;;;;29.25;42.45;100877.80;1757841;80;21042;-71
2021/06/19 10:42:33;;;;;;;3.90;2.07;;;;;;;29.20;42.50;100876.19;1770895;80;21137;-71
2021/06/19 10:45:06;;;;;;;5.58;2.10;;;;;;;29.23;43.42;100876.81;1764997;80;21526;-72
2021/06/19 10:47:54;;;;;;;4.37;1.63;;;;;;;29.38;44.15;100881.86;1763383;80;21027;-71
2021/06/19 10:50:22;;;;;;;5.30;1.90;;;;;;;29.44;43.13;100866.59;1744746;80;21023;-71
2021/06/19 10:53:16;;;;;;;4.00;1.77;;;;;;;29.43;43.66;100870.53;1756832;80;21089;-71
2021/06/19 10:55:52;;;;;;;4.37;1.87;;;;;;;29.38;42.35;100870.86;1747694;80;21520;-72
2021/06/19 10:58:28;;;;;;;5.83;1.90;;;;;;;29.28;43.14;100879.20;1752160;80;21059;-71
2021/06/19 11:00:59;;;;;;;5.25;1.77;;;;;;;29.41;42.51;100865.98;1758437;80;21065;-72
2021/06/19 11:03:49;;;;;;;7.73;1.90;;;;;;;29.63;41.74;100875.27;1760741;80;21050;-72
2021/06/19 11:06:34;;;;;;;4.10;1.83;;;;;;;29.85;42.19;100880.39;1765734;80;21086;-71
2021/06/19 11:09:15;;;;;;;3.90;1.60;;;;;;;30.10;40.96;100874.47;1732386;80;21149;-73
2021/06/19 11:11:55;;;;;;;4.10;1.67;;;;;;;30.26;41.95;100878.94;1761940;80;21070;-72
2021/06/19 11:14:47;;;;;;;3.05;1.20;;;;;;;30.36;40.66;100872.11;1754332;80;21509;-73
2021/06/19 11:17:25;;;;;;;2.87;1.57;;;;;;;30.40;40.41;100880.40;1758627;80;21569;-80
2021/06/19 11:19:59;;;;;;;4.45;1.80;;;;;;;30.32;39.92;100878.79;1757584;80;21094;-80
2021/06/19 11:22:41;;;;;;;4.00;1.50;;;;;;;30.29;40.38;100878.97;1758926;80;21029;-79
2021/06/19 11:25:39;;;;;;;5.53;1.70;;;;;;;30.33;40.27;100874.84;1760644;80;21062;-80
2021/06/19 11:28:22;;;;;;;6.35;1.60;;;;;;;30.38;40.65;100886.91;1748901;80;21010;-81
2021/06/19 11:31:02;;;;;;;8.05;1.60;;;;;;;30.36;39.67;100869.95;1757733;80;21039;-80
2021/06/19 11:33:34;;;;;;;4.37;1.77;;;;;;;30.38;40.01;100868.40;1755489;80;21486;-81
2021/06/19 11:36:07;;;;;;;4.33;1.40;;;;;;;30.40;39.39;100865.23;1757543;80;21125;-80
2021/06/19 11:38:49;;;;;;;3.60;1.20;;;;;;;30.38;39.35;100856.00;1764123;79;21042;-75